createdAt,value
2018-08-12T00:00:13.776Z,1.70
2018-08-12T00:02:40.863Z,1.30
2018-08-12T00:05:07.886Z,1.50
2018-08-12T00:07:34.926Z,1.40
2018-08-12T00:10:03.014Z,1.70
2018-08-12T00:12:30.048Z,1.17
2018-08-12T00:14:57.157Z,1.90
2018-08-12T00:17:24.252Z,1.33
2018-08-12T00:19:51.295Z,1.63
2018-08-12T00:22:18.332Z,1.60
2018-08-12T00:24:45.432Z,1.40
2018-08-12T00:27:12.460Z,1.50
2018-08-12T00:29:39.483Z,1.43
2018-08-12T00:32:06.576Z,1.67
2018-08-12T00:34:33.624Z,1.63
2018-08-12T00:37:00.650Z,1.47
2018-08-12T00:39:27.755Z,1.73
2018-08-12T00:41:54.886Z,1.60
2018-08-12T00:47:00.476Z,1.70
2018-08-12T00:49:27.507Z,1.73
2018-08-12T00:51:54.524Z,1.83
2018-08-12T00:54:22.107Z,1.50
2018-08-12T00:56:49.219Z,1.70
2018-08-12T00:59:16.256Z,1.60
2018-08-12T01:01:43.351Z,1.47
2018-08-12T01:04:10.378Z,1.70
2018-08-12T01:06:37.635Z,1.70
2018-08-12T01:09:04.554Z,1.80
2018-08-12T01:11:31.533Z,1.63
2018-08-12T01:13:58.515Z,1.67
2018-08-12T01:16:25.540Z,1.70
2018-08-12T01:18:52.516Z,1.80
2018-08-12T01:21:19.506Z,1.80
2018-08-12T01:23:46.558Z,1.90
2018-08-12T01:26:13.629Z,1.93
2018-08-12T01:28:40.614Z,1.67
2018-08-12T01:31:07.639Z,2.10
2018-08-12T01:33:34.630Z,2.10
2018-08-12T01:36:02.364Z,1.73
2018-08-12T01:38:29.418Z,2.17
2018-08-12T01:40:56.769Z,1.80
2018-08-12T01:43:23.766Z,2.27
2018-08-12T01:45:51.530Z,2.13
2018-08-12T01:48:18.511Z,1.90
2018-08-12T01:50:45.493Z,2.17
2018-08-12T01:53:12.610Z,2.10
2018-08-12T01:58:18.994Z,2.00
2018-08-12T02:00:46.701Z,1.83
2018-08-12T02:03:13.721Z,2.07
2018-08-12T02:05:40.784Z,1.97
2018-08-12T02:08:07.732Z,1.77
2018-08-12T02:10:34.725Z,1.90
2018-08-12T02:13:01.789Z,2.00
2018-08-12T02:15:28.774Z,2.07
2018-08-12T02:17:56.728Z,1.70
2018-08-12T02:20:23.855Z,2.00
2018-08-12T02:22:50.851Z,2.00
2018-08-12T02:25:17.848Z,2.00
2018-08-12T02:27:44.921Z,2.33
2018-08-12T02:30:11.901Z,2.10
2018-08-12T02:32:38.900Z,2.00
2018-08-12T02:35:06.757Z,2.50
2018-08-12T02:37:34.707Z,1.80
2018-08-12T02:40:01.703Z,1.77
2018-08-12T02:42:28.761Z,1.93
2018-08-12T02:44:55.773Z,1.90
2018-08-12T02:47:22.766Z,1.97
2018-08-12T02:49:49.849Z,1.87
2018-08-12T02:52:16.856Z,1.97
2018-08-12T02:54:43.851Z,2.10
2018-08-12T02:57:11.273Z,2.27
2018-08-12T02:59:38.305Z,2.37
2018-08-12T03:02:05.273Z,1.90
2018-08-12T03:04:32.310Z,1.83
2018-08-12T03:06:59.320Z,2.30
2018-08-12T03:09:26.309Z,2.30
2018-08-12T03:11:53.372Z,2.13
2018-08-12T03:14:21.404Z,2.17
2018-08-12T03:19:26.896Z,2.22
2018-08-12T03:21:54.054Z,2.10
2018-08-12T03:24:21.040Z,1.93
2018-08-12T03:26:48.090Z,2.00
2018-08-12T03:29:15.083Z,1.53
2018-08-12T03:31:42.162Z,2.30
2018-08-12T03:34:09.209Z,2.00
2018-08-12T03:36:36.219Z,1.97
2018-08-12T03:39:03.671Z,1.80
2018-08-12T03:41:30.636Z,1.77
2018-08-12T03:43:57.643Z,1.87
2018-08-12T03:46:24.639Z,2.30
2018-08-12T03:48:52.391Z,2.40
2018-08-12T03:51:19.830Z,2.17
2018-08-12T03:53:46.833Z,2.00
2018-08-12T03:56:14.437Z,2.37
2018-08-12T03:58:41.779Z,2.10
2018-08-12T04:01:09.676Z,2.37
2018-08-12T04:03:37.308Z,1.90
2018-08-12T04:06:04.095Z,1.73
2018-08-12T04:08:31.106Z,2.33
2018-08-12T04:10:58.177Z,2.37
2018-08-12T04:13:25.162Z,2.20
2018-08-12T04:15:52.159Z,2.43
2018-08-12T04:18:19.190Z,2.27
2018-08-12T04:20:46.175Z,2.30
2018-08-12T04:23:13.170Z,1.83
2018-08-12T04:25:40.227Z,2.27
2018-08-12T04:28:07.244Z,2.10
2018-08-12T04:30:34.257Z,2.50
2018-08-12T04:33:01.317Z,2.87
2018-08-12T04:35:28.344Z,2.37
2018-08-12T04:37:55.358Z,2.40
2018-08-12T04:40:22.437Z,2.53
2018-08-12T04:45:28.045Z,2.87
2018-08-12T04:47:55.083Z,3.30
2018-08-12T04:50:22.068Z,3.03
2018-08-12T04:52:49.103Z,2.67
2018-08-12T04:55:16.091Z,2.60
2018-08-12T04:57:43.068Z,2.87
2018-08-12T05:00:10.099Z,2.80
2018-08-12T05:02:37.094Z,3.10
2018-08-12T05:05:04.073Z,2.57
2018-08-12T05:07:31.134Z,2.57
2018-08-12T05:09:58.132Z,3.03
2018-08-12T05:12:25.109Z,3.00
2018-08-12T05:14:52.138Z,2.80
2018-08-12T05:17:19.142Z,2.70
2018-08-12T05:19:46.126Z,2.60
2018-08-12T05:22:13.197Z,2.90
2018-08-12T05:24:41.142Z,2.90
2018-08-12T05:27:08.400Z,2.80
2018-08-12T05:29:35.795Z,2.50
2018-08-12T05:32:02.741Z,2.90
2018-08-12T05:34:29.733Z,3.03
2018-08-12T05:36:56.812Z,2.70
2018-08-12T05:39:23.869Z,3.07
2018-08-12T05:41:50.835Z,2.53
2018-08-12T05:44:17.877Z,2.90
2018-08-12T05:46:44.871Z,2.40
2018-08-12T05:49:11.888Z,2.60
2018-08-12T05:51:38.972Z,3.00
2018-08-12T05:54:05.972Z,2.80
2018-08-12T05:56:32.980Z,2.43
2018-08-12T05:59:00.038Z,2.47
2018-08-12T06:01:27.048Z,2.00
2018-08-12T06:03:54.090Z,2.03
2018-08-12T06:06:21.147Z,2.53
2018-08-12T06:11:26.691Z,2.00
2018-08-12T06:13:53.692Z,2.13
2018-08-12T06:16:21.842Z,2.10
2018-08-12T06:18:48.877Z,1.87
2018-08-12T06:21:16.834Z,1.60
2018-08-12T06:23:43.820Z,1.63
2018-08-12T06:26:10.987Z,1.87
2018-08-12T06:28:37.976Z,1.90
2018-08-12T06:31:04.969Z,1.93
2018-08-12T06:33:32.578Z,2.30
2018-08-12T06:35:59.574Z,2.00
2018-08-12T06:38:26.702Z,1.67
2018-08-12T06:40:53.759Z,2.00
2018-08-12T06:43:20.758Z,1.63
2018-08-12T06:45:48.701Z,1.80
2018-08-12T06:48:15.749Z,1.70
2018-08-12T06:50:42.729Z,1.83
2018-08-12T06:53:09.713Z,1.87
2018-08-12T06:55:36.813Z,1.70
2018-08-12T06:58:03.796Z,1.53
2018-08-12T07:00:30.835Z,1.77
2018-08-12T07:02:57.850Z,2.03
2018-08-12T07:05:24.820Z,1.90
2018-08-12T07:07:51.811Z,1.50
2018-08-12T07:10:18.876Z,1.73
2018-08-12T07:12:45.865Z,2.10
2018-08-12T07:15:12.933Z,1.73
2018-08-12T07:17:39.960Z,1.80
2018-08-12T07:22:48.246Z,2.00
2018-08-12T07:25:15.233Z,1.47
2018-08-12T07:27:42.233Z,1.80
2018-08-12T07:30:09.284Z,1.47
2018-08-12T07:32:36.357Z,1.77
2018-08-12T07:35:03.356Z,1.53
2018-08-12T07:37:30.384Z,1.73
2018-08-12T07:39:57.363Z,1.53
2018-08-12T07:42:24.353Z,1.60
2018-08-12T07:44:51.971Z,1.87
2018-08-12T07:47:18.837Z,1.53
2018-08-12T07:49:45.821Z,1.50
2018-08-12T07:52:12.846Z,1.80
2018-08-12T07:54:39.908Z,1.87
2018-08-12T07:57:06.909Z,1.60
2018-08-12T07:59:33.945Z,1.70
2018-08-12T08:02:00.925Z,1.97
2018-08-12T08:04:27.909Z,1.90
2018-08-12T08:06:54.932Z,1.50
2018-08-12T08:09:21.918Z,1.93
2018-08-12T08:11:49.913Z,1.57
2018-08-12T08:14:16.966Z,1.90
2018-08-12T08:16:43.967Z,1.70
2018-08-12T08:19:10.957Z,1.40
2018-08-12T08:26:59.063Z,1.50
2018-08-12T08:29:26.045Z,1.50
2018-08-12T08:31:53.197Z,1.40
2018-08-12T08:34:20.075Z,1.40
2018-08-12T08:36:47.882Z,1.70
2018-08-12T08:39:14.863Z,1.40
2018-08-12T08:41:41.921Z,1.37
2018-08-12T08:44:08.986Z,1.50
2018-08-12T08:46:35.970Z,1.50
2018-08-12T08:49:03.018Z,1.57
2018-08-12T08:54:09.441Z,1.30
2018-08-12T08:56:36.450Z,1.27
2018-08-12T08:59:03.441Z,1.67
2018-08-12T09:01:30.558Z,1.50
2018-08-12T09:03:57.491Z,1.30
2018-08-12T09:06:24.476Z,1.40
2018-08-12T09:08:51.759Z,1.30
2018-08-12T09:11:18.847Z,1.70
2018-08-12T09:13:46.735Z,1.40
2018-08-12T09:16:14.699Z,1.40
2018-08-12T09:18:41.689Z,1.23
2018-08-12T09:21:08.685Z,1.23
2018-08-12T09:23:35.713Z,1.43
2018-08-12T09:26:02.694Z,1.60
2018-08-12T09:28:29.679Z,1.23
2018-08-12T09:30:56.737Z,1.60
2018-08-12T09:33:23.720Z,1.60
2018-08-12T09:35:50.696Z,1.80
2018-08-12T09:38:17.724Z,1.60
2018-08-12T09:40:44.705Z,1.30
2018-08-12T09:43:11.776Z,1.50
2018-08-12T09:45:38.798Z,1.70
2018-08-12T09:48:05.776Z,1.53
2018-08-12T09:50:32.775Z,1.53
2018-08-12T09:52:59.831Z,1.37
2018-08-12T09:55:26.812Z,1.80
2018-08-12T09:57:53.879Z,1.13
2018-08-12T10:00:20.951Z,1.73
2018-08-12T10:02:47.898Z,1.37
2018-08-12T10:05:15.396Z,1.60
2018-08-12T10:07:42.478Z,1.67
2018-08-12T10:10:09.470Z,1.57
2018-08-12T10:15:14.963Z,1.73
2018-08-12T10:17:41.987Z,1.90
2018-08-12T10:20:08.994Z,1.90
2018-08-12T10:22:36.041Z,1.90
2018-08-12T10:25:03.037Z,2.20
2018-08-12T10:27:30.496Z,1.80
2018-08-12T10:29:57.627Z,1.90
2018-08-12T10:32:24.635Z,1.83
2018-08-12T10:34:51.616Z,1.67
2018-08-12T10:37:18.635Z,2.17
2018-08-12T10:39:46.461Z,2.20
2018-08-12T10:42:13.443Z,2.43
2018-08-12T10:44:41.309Z,2.50
2018-08-12T10:47:08.346Z,1.90
2018-08-12T10:49:35.351Z,2.13
2018-08-12T10:52:03.115Z,2.10
2018-08-12T10:54:30.448Z,2.23
2018-08-12T10:56:58.259Z,2.07
2018-08-12T10:59:25.333Z,2.03
2018-08-12T11:01:52.814Z,2.50
2018-08-12T11:04:19.769Z,2.73
2018-08-12T11:06:46.833Z,2.30
2018-08-12T11:09:13.826Z,2.50
2018-08-12T11:11:42.065Z,2.53
2018-08-12T11:14:09.105Z,2.47
2018-08-12T11:16:36.103Z,2.40
2018-08-12T11:19:03.837Z,2.17
2018-08-12T11:21:30.903Z,2.25
2018-08-12T11:23:57.890Z,2.45
2018-08-12T11:26:24.885Z,1.90
2018-08-12T11:28:52.682Z,2.60
2018-08-12T11:31:19.672Z,2.47
2018-08-12T11:36:26.201Z,2.93
2018-08-12T11:38:53.181Z,2.87
2018-08-12T11:41:20.308Z,2.72
2018-08-12T11:43:47.204Z,2.65
2018-08-12T11:46:14.203Z,2.87
2018-08-12T11:48:41.192Z,2.85
2018-08-12T11:51:09.058Z,2.67
2018-08-12T11:53:36.058Z,2.80
2018-08-12T11:56:03.057Z,3.00
2018-08-12T11:58:30.114Z,2.90
2018-08-12T12:00:57.124Z,2.85
2018-08-12T12:03:24.124Z,2.50
2018-08-12T12:05:51.196Z,2.83
2018-08-12T12:08:18.205Z,3.10
2018-08-12T12:10:46.146Z,2.72
2018-08-12T12:13:13.185Z,2.70
2018-08-12T12:15:40.207Z,3.00
2018-08-12T12:18:07.205Z,2.92
2018-08-12T12:20:34.337Z,2.70
2018-08-12T12:23:01.267Z,2.83
2018-08-12T12:25:28.272Z,3.00
2018-08-12T12:27:55.347Z,2.83
2018-08-12T12:30:23.189Z,2.90
2018-08-12T12:32:50.427Z,3.00
2018-08-12T12:35:18.333Z,2.65
2018-08-12T12:40:25.063Z,2.77
2018-08-12T12:42:52.072Z,2.90
2018-08-12T12:45:20.029Z,2.60
2018-08-12T12:47:47.057Z,2.80
2018-08-12T12:50:14.112Z,2.80
2018-08-12T12:52:41.420Z,2.67
2018-08-12T12:55:08.463Z,3.03
2018-08-12T12:57:35.457Z,2.85
2018-08-12T13:00:02.521Z,2.70
2018-08-12T13:02:29.663Z,2.20
2018-08-12T13:04:57.567Z,2.42
2018-08-12T13:07:24.559Z,2.55
2018-08-12T13:09:52.075Z,2.60
2018-08-12T13:12:19.163Z,3.08
2018-08-12T13:14:46.183Z,2.80
2018-08-12T13:17:13.255Z,2.45
2018-08-12T13:19:40.252Z,2.60
2018-08-12T13:22:07.252Z,2.78
2018-08-12T13:24:34.285Z,2.53
2018-08-12T13:27:01.297Z,2.85
2018-08-12T13:29:28.293Z,3.00
2018-08-12T13:31:55.334Z,2.85
2018-08-12T13:34:22.331Z,2.80
2018-08-12T13:36:49.319Z,3.17
2018-08-12T13:39:16.354Z,3.05
2018-08-12T13:41:43.355Z,2.65
2018-08-12T13:44:10.364Z,2.62
2018-08-12T13:46:37.439Z,2.78
2018-08-12T13:51:44.579Z,3.10
2018-08-12T13:54:11.607Z,2.90
2018-08-12T13:56:38.622Z,3.00
2018-08-12T13:59:06.679Z,2.72
2018-08-12T14:01:33.684Z,2.97
2018-08-12T14:04:01.623Z,3.03
2018-08-12T14:06:28.660Z,2.92
2018-08-12T14:08:56.494Z,3.00
2018-08-12T14:11:23.491Z,3.40
2018-08-12T14:13:50.597Z,2.97
2018-08-12T14:16:17.637Z,2.87
2018-08-12T14:18:45.471Z,3.20
2018-08-12T14:21:13.438Z,3.05
2018-08-12T14:23:40.376Z,3.33
2018-08-12T14:26:07.368Z,3.15
2018-08-12T14:28:34.403Z,3.22
2018-08-12T14:31:02.267Z,3.33
2018-08-12T14:33:29.264Z,3.12
2018-08-12T14:35:57.351Z,2.80
2018-08-12T14:38:24.340Z,3.10
2018-08-12T14:40:51.333Z,2.70
2018-08-12T14:43:18.378Z,2.92
2018-08-12T14:45:45.373Z,2.90
2018-08-12T14:48:12.384Z,2.90
2018-08-12T14:50:40.271Z,3.40
2018-08-12T14:53:07.269Z,3.72
2018-08-12T14:55:34.258Z,3.33
2018-08-12T14:58:01.301Z,3.00
2018-08-12T15:00:28.296Z,3.00
2018-08-12T15:02:55.280Z,3.30
2018-08-12T15:05:22.314Z,3.30
2018-08-12T15:10:27.848Z,3.60
2018-08-12T15:12:54.953Z,3.17
2018-08-12T15:15:22.023Z,3.10
2018-08-12T15:17:48.973Z,2.67
2018-08-12T15:20:15.973Z,2.83
2018-08-12T15:22:43.018Z,2.75
2018-08-12T15:25:10.036Z,2.90
2018-08-12T15:27:37.043Z,3.20
2018-08-12T15:30:04.866Z,3.00
2018-08-12T15:32:31.900Z,3.05
2018-08-12T15:34:58.897Z,2.80
2018-08-12T15:37:25.894Z,2.92
2018-08-12T15:39:52.958Z,2.85
2018-08-12T15:42:29.944Z,3.08
2018-08-12T15:45:05.077Z,3.17
2018-08-12T15:47:32.110Z,2.90
2018-08-12T15:50:00.070Z,3.20
2018-08-12T15:55:03.604Z,3.10
2018-08-12T15:57:34.407Z,3.20
2018-08-12T16:00:01.426Z,2.80
2018-08-12T16:02:28.436Z,3.28
2018-08-12T16:04:55.563Z,3.05
2018-08-12T16:07:26.229Z,2.95
2018-08-12T16:10:01.640Z,3.42
2018-08-12T16:12:42.260Z,3.37
2018-08-12T16:15:17.323Z,2.72
2018-08-12T16:26:23.402Z,3.28
2018-08-12T16:31:40.042Z,4.67
2018-08-12T16:34:08.610Z,3.00
2018-08-12T16:36:35.623Z,3.05
2018-08-12T16:41:41.363Z,3.10
2018-08-12T16:44:08.426Z,2.90
2018-08-12T16:46:35.408Z,2.62
2018-08-12T16:49:03.440Z,2.58
2018-08-12T16:51:30.518Z,2.80
2018-08-12T16:54:01.681Z,3.10
2018-08-12T16:56:29.656Z,2.78
2018-08-12T17:01:36.101Z,2.90
2018-08-12T17:04:04.098Z,3.25
2018-08-12T17:06:32.012Z,2.95
2018-08-12T17:09:00.533Z,2.50
2018-08-12T17:11:27.652Z,2.78
2018-08-12T17:13:54.699Z,2.40
2018-08-12T17:16:21.721Z,2.83
2018-08-12T17:18:49.691Z,2.60
2018-08-12T17:21:16.707Z,2.65
2018-08-12T17:23:43.725Z,2.80
2018-08-12T17:26:11.758Z,3.05
2018-08-12T17:28:38.771Z,3.08
2018-08-12T17:31:05.839Z,2.65
2018-08-12T17:33:32.882Z,2.90
2018-08-12T17:35:59.928Z,2.55
2018-08-12T17:38:27.943Z,2.92
2018-08-12T17:40:55.027Z,3.30
2018-08-12T17:43:22.435Z,3.33
2018-08-12T17:45:49.445Z,3.25
2018-08-12T17:48:17.374Z,3.10
2018-08-12T17:53:23.677Z,3.83
2018-08-12T17:55:50.677Z,3.70
2018-08-12T17:58:17.742Z,3.45
2018-08-12T18:00:44.789Z,3.33
2018-08-12T18:03:11.769Z,3.30
2018-08-12T18:05:38.764Z,3.72
2018-08-12T18:08:06.608Z,3.20
2018-08-12T18:10:33.637Z,3.22
2018-08-12T18:13:00.704Z,3.27
2018-08-12T18:15:27.749Z,3.30
2018-08-12T18:20:33.300Z,3.43
2018-08-12T18:23:00.233Z,3.12
2018-08-12T18:25:28.051Z,3.15
2018-08-12T18:27:55.114Z,3.20
2018-08-12T18:30:22.110Z,3.70
2018-08-12T18:32:49.098Z,3.23
2018-08-12T18:35:17.031Z,3.50
2018-08-12T18:37:44.147Z,2.90
2018-08-12T18:40:11.154Z,3.75
2018-08-12T18:42:38.220Z,3.93
2018-08-12T18:45:05.247Z,3.50
2018-08-12T18:47:32.238Z,3.57
2018-08-12T18:50:00.162Z,3.50
2018-08-12T18:52:27.748Z,3.30
2018-08-12T18:54:54.783Z,3.77
2018-08-12T18:57:21.850Z,3.30
2018-08-12T18:59:48.848Z,3.10
2018-08-12T19:02:15.880Z,3.07
2018-08-12T19:04:43.750Z,2.83
2018-08-12T19:09:56.469Z,3.17
2018-08-12T19:12:23.387Z,3.27
2018-08-12T19:14:55.790Z,3.03
2018-08-12T19:19:54.952Z,3.10
2018-08-12T19:22:21.976Z,3.37
2018-08-12T19:24:49.084Z,3.17
2018-08-12T19:27:16.126Z,2.93
2018-08-12T19:29:43.159Z,2.80
2018-08-12T19:32:10.190Z,2.87
2018-08-12T19:34:37.242Z,2.63
2018-08-12T19:37:04.225Z,3.00
2018-08-12T19:39:31.409Z,3.00
2018-08-12T19:41:58.442Z,2.50
2018-08-12T19:44:25.465Z,2.77
2018-08-12T19:46:53.563Z,2.33
2018-08-12T19:49:21.465Z,1.97
2018-08-12T19:51:48.535Z,1.70
2018-08-12T19:54:15.558Z,2.30
2018-08-12T19:56:43.428Z,2.10
2018-08-12T19:59:10.439Z,1.80
2018-08-12T20:01:37.437Z,1.93
2018-08-12T20:04:04.481Z,1.90
2018-08-12T20:06:31.567Z,2.50
2018-08-12T20:08:58.557Z,2.00
2018-08-12T20:11:25.604Z,2.30
2018-08-12T20:13:52.732Z,2.20
2018-08-12T20:16:19.712Z,2.00
2018-08-12T20:18:46.771Z,2.10
2018-08-12T20:21:13.770Z,2.10
2018-08-12T20:26:19.274Z,2.67
2018-08-12T20:28:46.285Z,2.50
2018-08-12T20:31:13.279Z,2.17
2018-08-12T20:33:40.308Z,2.03
2018-08-12T20:36:07.311Z,2.20
2018-08-12T20:38:34.324Z,2.30
2018-08-12T20:41:01.359Z,2.03
2018-08-12T20:43:28.371Z,1.80
2018-08-12T20:45:55.447Z,1.90
2018-08-12T20:48:22.495Z,1.97
2018-08-12T20:50:49.499Z,1.80
2018-08-12T20:53:16.500Z,1.30
2018-08-12T20:55:43.547Z,1.80
2018-08-12T20:58:10.557Z,1.70
2018-08-12T21:00:37.584Z,1.80
2018-08-12T21:03:04.627Z,1.70
2018-08-12T21:05:31.717Z,2.00
2018-08-12T21:07:58.721Z,1.80
2018-08-12T21:10:25.795Z,1.67
2018-08-12T21:12:52.816Z,1.93
2018-08-12T21:15:19.822Z,1.80
2018-08-12T21:17:46.866Z,1.67
2018-08-12T21:20:13.859Z,1.80
2018-08-12T21:22:40.925Z,1.80
2018-08-12T21:25:08.056Z,1.90
2018-08-12T21:27:35.437Z,2.20
2018-08-12T21:32:40.989Z,2.40
2018-08-12T21:35:07.982Z,2.07
2018-08-12T21:37:34.998Z,2.10
2018-08-12T21:40:02.023Z,2.23
2018-08-12T21:42:29.032Z,2.20
2018-08-12T21:44:56.018Z,2.57
2018-08-12T21:47:23.100Z,2.53
2018-08-12T21:49:50.134Z,2.20
2018-08-12T21:52:17.125Z,2.40
2018-08-12T21:54:44.242Z,2.77
2018-08-12T21:57:11.246Z,2.33
2018-08-12T21:59:38.238Z,2.53
2018-08-12T22:02:05.298Z,3.20
2018-08-12T22:04:32.313Z,2.70
2018-08-12T22:06:59.376Z,3.00
2018-08-12T22:09:26.468Z,2.93
2018-08-12T22:11:53.463Z,3.17
2018-08-12T22:14:20.498Z,2.53
2018-08-12T22:16:47.543Z,3.67
2018-08-12T22:19:14.545Z,3.60
2018-08-12T22:21:41.551Z,3.20
2018-08-12T22:24:09.475Z,3.13
2018-08-12T22:26:36.470Z,3.47
2018-08-12T22:29:03.472Z,3.40
2018-08-12T22:31:30.519Z,3.17
2018-08-12T22:33:57.512Z,3.17
2018-08-12T22:36:24.509Z,3.43
2018-08-12T22:38:52.322Z,4.03
2018-08-12T22:41:19.316Z,3.60
2018-08-12T22:43:46.880Z,3.40
2018-08-12T22:46:13.917Z,3.40
2018-08-12T22:48:40.922Z,3.80
2018-08-12T22:51:08.021Z,3.50
2018-08-12T22:53:35.065Z,3.40
2018-08-12T22:58:42.129Z,3.95
2018-08-12T23:01:09.125Z,3.53
2018-08-12T23:03:36.148Z,3.30
2018-08-12T23:06:03.186Z,3.40
2018-08-12T23:08:30.187Z,3.53
2018-08-12T23:10:57.197Z,3.17
2018-08-12T23:13:24.244Z,2.90
2018-08-12T23:18:35.165Z,4.28
2018-08-12T23:21:02.157Z,3.93
2018-08-12T23:23:30.101Z,3.60
2018-08-12T23:25:57.162Z,3.20
2018-08-12T23:28:24.990Z,3.80
2018-08-12T23:30:51.965Z,3.47
2018-08-12T23:33:19.732Z,3.30
2018-08-12T23:35:46.750Z,3.00
2018-08-12T23:38:13.745Z,3.17
2018-08-12T23:40:40.783Z,2.80
2018-08-12T23:43:08.614Z,3.10
2018-08-12T23:45:35.615Z,3.10
2018-08-12T23:48:02.679Z,3.10
2018-08-12T23:50:29.654Z,3.40
2018-08-12T23:52:57.458Z,3.37
2018-08-12T23:55:24.524Z,3.37
2018-08-12T23:57:51.507Z,3.03
